sensor_id;sensor_type;location;lat;lon;timestamp;temperature;humidity
3268;DHT22;1646;52.450;13.326;2023-04-06T00:01:11;5.90;99.90
3268;DHT22;1646;52.450;13.326;2023-04-06T00:06:10;5.90;99.90
3268;DHT22;1646;52.450;13.326;2023-04-06T00:11:08;5.80;99.90
3268;DHT22;1646;52.450;13.326;2023-04-06T00:16:06;5.80;99.90
3268;DHT22;1646;52.450;13.326;2023-04-06T00:21:06;5.90;99.90
3268;DHT22;1646;52.450;13.326;2023-04-06T00:26:05;5.90;99.90
3268;DHT22;1646;52.450;13.326;2023-04-06T00:31:03;5.90;99.90
3268;DHT22;1646;52.450;13.326;2023-04-06T00:36:01;6.00;99.90
3268;DHT22;1646;52.450;13.326;2023-04-06T00:41:03;5.90;99.90
3268;DHT22;1646;52.450;13.326;2023-04-06T00:46:01;5.80;99.90
3268;DHT22;1646;52.450;13.326;2023-04-06T00:51:00;5.80;99.90
3268;DHT22;1646;52.450;13.326;2023-04-06T00:55:59;5.80;99.90
3268;DHT22;1646;52.450;13.326;2023-04-06T01:01:03;5.80;99.90
3268;DHT22;1646;52.450;13.326;2023-04-06T01:06:04;5.70;99.90
3268;DHT22;1646;52.450;13.326;2023-04-06T01:11:07;5.60;99.90
3268;DHT22;1646;52.450;13.326;2023-04-06T01:16:08;5.60;99.90
3268;DHT22;1646;52.450;13.326;2023-04-06T01:21:31;5.50;99.90
3268;DHT22;1646;52.450;13.326;2023-04-06T01:27:05;5.40;99.90
3268;DHT22;1646;52.450;13.326;2023-04-06T01:32:36;5.10;99.90
3268;DHT22;1646;52.450;13.326;2023-04-06T01:38:12;5.00;99.90
3268;DHT22;1646;52.450;13.326;2023-04-06T01:43:14;4.90;99.90
3268;DHT22;1646;52.450;13.326;2023-04-06T01:48:31;4.90;99.90
3268;DHT22;1646;52.450;13.326;2023-04-06T01:53:35;5.00;99.90
3268;DHT22;1646;52.450;13.326;2023-04-06T01:58:37;4.90;99.90
3268;DHT22;1646;52.450;13.326;2023-04-06T02:03:36;4.80;99.90
3268;DHT22;1646;52.450;13.326;2023-04-06T02:08:39;4.60;99.90
3268;DHT22;1646;52.450;13.326;2023-04-06T02:13:38;4.60;99.90
3268;DHT22;1646;52.450;13.326;2023-04-06T02:18:39;4.60;99.90
3268;DHT22;1646;52.450;13.326;2023-04-06T02:23:37;4.70;99.90
3268;DHT22;1646;52.450;13.326;2023-04-06T02:28:35;4.70;99.90
3268;DHT22;1646;52.450;13.326;2023-04-06T02:33:35;4.70;99.90
3268;DHT22;1646;52.450;13.326;2023-04-06T02:38:35;4.70;99.90
3268;DHT22;1646;52.450;13.326;2023-04-06T02:43:34;4.60;99.90
3268;DHT22;1646;52.450;13.326;2023-04-06T02:48:40;4.50;99.90
3268;DHT22;1646;52.450;13.326;2023-04-06T02:53:39;4.40;99.90
3268;DHT22;1646;52.450;13.326;2023-04-06T02:58:37;4.40;99.90
3268;DHT22;1646;52.450;13.326;2023-04-06T03:03:36;4.30;99.90
3268;DHT22;1646;52.450;13.326;2023-04-06T03:08:41;4.20;99.90
3268;DHT22;1646;52.450;13.326;2023-04-06T03:13:40;4.10;99.90
3268;DHT22;1646;52.450;13.326;2023-04-06T03:18:39;4.00;99.90
3268;DHT22;1646;52.450;13.326;2023-04-06T03:23:38;4.00;99.90
3268;DHT22;1646;52.450;13.326;2023-04-06T03:28:38;4.00;99.90
3268;DHT22;1646;52.450;13.326;2023-04-06T03:33:37;4.00;99.90
3268;DHT22;1646;52.450;13.326;2023-04-06T03:38:37;4.00;99.90
3268;DHT22;1646;52.450;13.326;2023-04-06T03:43:42;4.10;99.90
3268;DHT22;1646;52.450;13.326;2023-04-06T03:48:41;4.10;99.90
3268;DHT22;1646;52.450;13.326;2023-04-06T03:53:40;4.10;99.90
3268;DHT22;1646;52.450;13.326;2023-04-06T03:58:38;4.10;99.90
3268;DHT22;1646;52.450;13.326;2023-04-06T04:03:38;4.10;99.90
3268;DHT22;1646;52.450;13.326;2023-04-06T04:08:37;4.10;99.90
3268;DHT22;1646;52.450;13.326;2023-04-06T04:13:35;4.00;99.90
3268;DHT22;1646;52.450;13.326;2023-04-06T04:18:35;4.00;99.90
3268;DHT22;1646;52.450;13.326;2023-04-06T04:23:37;3.90;99.90
3268;DHT22;1646;52.450;13.326;2023-04-06T04:28:35;3.90;99.90
3268;DHT22;1646;52.450;13.326;2023-04-06T04:33:34;3.80;99.90
3268;DHT22;1646;52.450;13.326;2023-04-06T04:38:40;3.80;99.90
3268;DHT22;1646;52.450;13.326;2023-04-06T04:43:38;3.70;99.90
3268;DHT22;1646;52.450;13.326;2023-04-06T04:48:37;3.70;99.90
3268;DHT22;1646;52.450;13.326;2023-04-06T04:53:37;3.70;99.90
3268;DHT22;1646;52.450;13.326;2023-04-06T04:58:47;3.70;99.90
3268;DHT22;1646;52.450;13.326;2023-04-06T05:03:46;3.60;99.90
3268;DHT22;1646;52.450;13.326;2023-04-06T05:08:46;3.70;99.90
3268;DHT22;1646;52.450;13.326;2023-04-06T05:13:46;3.70;99.90
3268;DHT22;1646;52.450;13.326;2023-04-06T05:18:49;3.80;99.90
3268;DHT22;1646;52.450;13.326;2023-04-06T05:23:48;3.90;99.90
3268;DHT22;1646;52.450;13.326;2023-04-06T05:28:48;4.00;99.90
3268;DHT22;1646;52.450;13.326;2023-04-06T05:33:48;4.00;99.90
3268;DHT22;1646;52.450;13.326;2023-04-06T05:38:56;4.10;99.90
3268;DHT22;1646;52.450;13.326;2023-04-06T05:44:18;4.10;99.90
3268;DHT22;1646;52.450;13.326;2023-04-06T05:49:25;4.10;99.90
3268;DHT22;1646;52.450;13.326;2023-04-06T05:54:24;4.20;99.90
3268;DHT22;1646;52.450;13.326;2023-04-06T05:59:29;4.40;99.90
3268;DHT22;1646;52.450;13.326;2023-04-06T06:04:28;4.50;99.90
3268;DHT22;1646;52.450;13.326;2023-04-06T06:09:27;4.70;99.90
3268;DHT22;1646;52.450;13.326;2023-04-06T06:14:35;4.70;99.90
3268;DHT22;1646;52.450;13.326;2023-04-06T06:19:34;5.00;99.90
3268;DHT22;1646;52.450;13.326;2023-04-06T06:24:36;5.30;99.90
3268;DHT22;1646;52.450;13.326;2023-04-06T06:29:36;5.50;99.90
3268;DHT22;1646;52.450;13.326;2023-04-06T06:34:35;5.60;99.90
3268;DHT22;1646;52.450;13.326;2023-04-06T06:39:36;5.80;99.90
3268;DHT22;1646;52.450;13.326;2023-04-06T06:44:36;5.90;99.90
3268;DHT22;1646;52.450;13.326;2023-04-06T06:49:34;5.90;99.90
3268;DHT22;1646;52.450;13.326;2023-04-06T06:54:33;6.10;99.90
3268;DHT22;1646;52.450;13.326;2023-04-06T06:59:32;6.40;99.90
3268;DHT22;1646;52.450;13.326;2023-04-06T07:04:32;6.70;99.90
3268;DHT22;1646;52.450;13.326;2023-04-06T07:09:30;6.90;99.90
3268;DHT22;1646;52.450;13.326;2023-04-06T07:14:29;7.00;99.90
3268;DHT22;1646;52.450;13.326;2023-04-06T07:19:27;7.30;99.90
3268;DHT22;1646;52.450;13.326;2023-04-06T07:24:27;7.80;99.90
3268;DHT22;1646;52.450;13.326;2023-04-06T07:29:26;8.20;99.90
3268;DHT22;1646;52.450;13.326;2023-04-06T07:34:24;8.40;99.90
3268;DHT22;1646;52.450;13.326;2023-04-06T07:39:27;8.40;99.90
3268;DHT22;1646;52.450;13.326;2023-04-06T07:44:27;8.70;99.90
3268;DHT22;1646;52.450;13.326;2023-04-06T07:49:25;8.90;99.90
3268;DHT22;1646;52.450;13.326;2023-04-06T07:54:25;8.60;99.90
3268;DHT22;1646;52.450;13.326;2023-04-06T07:59:24;8.50;99.90
3268;DHT22;1646;52.450;13.326;2023-04-06T08:04:23;8.60;99.90
3268;DHT22;1646;52.450;13.326;2023-04-06T08:09:21;8.50;99.90
3268;DHT22;1646;52.450;13.326;2023-04-06T08:14:19;8.90;99.90
3268;DHT22;1646;52.450;13.326;2023-04-06T08:19:19;9.00;99.90
3268;DHT22;1646;52.450;13.326;2023-04-06T08:24:17;9.10;99.90
3268;DHT22;1646;52.450;13.326;2023-04-06T08:29:16;9.40;99.90
3268;DHT22;1646;52.450;13.326;2023-04-06T08:34:14;9.60;99.90
3268;DHT22;1646;52.450;13.326;2023-04-06T08:39:14;9.80;99.10
3268;DHT22;1646;52.450;13.326;2023-04-06T08:44:13;10.10;98.50
3268;DHT22;1646;52.450;13.326;2023-04-06T08:49:12;10.90;95.60
3268;DHT22;1646;52.450;13.326;2023-04-06T08:54:13;11.70;93.50
3268;DHT22;1646;52.450;13.326;2023-04-06T08:59:12;12.70;90.80
3268;DHT22;1646;52.450;13.326;2023-04-06T09:04:11;12.90;85.20
3268;DHT22;1646;52.450;13.326;2023-04-06T09:09:10;13.70;85.90
3268;DHT22;1646;52.450;13.326;2023-04-06T09:14:11;15.10;77.60
3268;DHT22;1646;52.450;13.326;2023-04-06T09:19:10;15.30;69.80
3268;DHT22;1646;52.450;13.326;2023-04-06T09:24:09;15.40;68.10
3268;DHT22;1646;52.450;13.326;2023-04-06T09:29:08;16.10;64.40
3268;DHT22;1646;52.450;13.326;2023-04-06T09:34:07;17.40;59.70
3268;DHT22;1646;52.450;13.326;2023-04-06T09:39:06;18.60;59.50
3268;DHT22;1646;52.450;13.326;2023-04-06T09:44:06;20.30;57.50
3268;DHT22;1646;52.450;13.326;2023-04-06T09:49:07;20.70;50.50
3268;DHT22;1646;52.450;13.326;2023-04-06T09:54:07;20.10;49.40
3268;DHT22;1646;52.450;13.326;2023-04-06T09:59:10;21.10;52.20
3268;DHT22;1646;52.450;13.326;2023-04-06T10:04:24;20.40;46.20
3268;DHT22;1646;52.450;13.326;2023-04-06T10:09:28;20.10;46.00
3268;DHT22;1646;52.450;13.326;2023-04-06T10:14:34;20.40;47.00
3268;DHT22;1646;52.450;13.326;2023-04-06T10:19:41;20.90;41.70
3268;DHT22;1646;52.450;13.326;2023-04-06T10:24:44;19.40;44.00
3268;DHT22;1646;52.450;13.326;2023-04-06T10:29:44;20.20;42.70
3268;DHT22;1646;52.450;13.326;2023-04-06T10:34:45;20.80;40.30
3268;DHT22;1646;52.450;13.326;2023-04-06T10:39:47;20.80;40.20
3268;DHT22;1646;52.450;13.326;2023-04-06T10:44:49;20.60;39.10
3268;DHT22;1646;52.450;13.326;2023-04-06T10:49:49;18.00;40.00
3268;DHT22;1646;52.450;13.326;2023-04-06T10:54:47;15.80;42.30
3268;DHT22;1646;52.450;13.326;2023-04-06T10:59:46;14.70;45.50
3268;DHT22;1646;52.450;13.326;2023-04-06T11:04:55;15.10;46.50
3268;DHT22;1646;52.450;13.326;2023-04-06T11:09:54;16.00;44.50
3268;DHT22;1646;52.450;13.326;2023-04-06T11:15:11;16.70;44.80
3268;DHT22;1646;52.450;13.326;2023-04-06T11:20:11;17.30;43.70
3268;DHT22;1646;52.450;13.326;2023-04-06T11:25:10;16.80;42.20
3268;DHT22;1646;52.450;13.326;2023-04-06T11:30:11;16.20;43.50
3268;DHT22;1646;52.450;13.326;2023-04-06T11:35:18;15.80;44.50
3268;DHT22;1646;52.450;13.326;2023-04-06T11:40:21;16.70;44.40
3268;DHT22;1646;52.450;13.326;2023-04-06T11:45:19;16.20;40.40
3268;DHT22;1646;52.450;13.326;2023-04-06T11:50:19;16.10;42.90
3268;DHT22;1646;52.450;13.326;2023-04-06T11:55:18;16.60;43.20
3268;DHT22;1646;52.450;13.326;2023-04-06T12:00:18;16.90;43.60
3268;DHT22;1646;52.450;13.326;2023-04-06T12:05:16;17.00;40.70
3268;DHT22;1646;52.450;13.326;2023-04-06T12:10:16;17.20;42.30
3268;DHT22;1646;52.450;13.326;2023-04-06T12:15:15;17.30;42.70
3268;DHT22;1646;52.450;13.326;2023-04-06T12:20:13;17.30;42.30
3268;DHT22;1646;52.450;13.326;2023-04-06T12:25:24;17.50;40.80
3268;DHT22;1646;52.450;13.326;2023-04-06T12:30:22;16.60;41.50
3268;DHT22;1646;52.450;13.326;2023-04-06T12:35:20;16.50;42.80
3268;DHT22;1646;52.450;13.326;2023-04-06T12:40:19;16.30;41.80
3268;DHT22;1646;52.450;13.326;2023-04-06T12:45:19;15.60;41.60
3268;DHT22;1646;52.450;13.326;2023-04-06T12:50:18;14.80;43.20
3268;DHT22;1646;52.450;13.326;2023-04-06T12:55:17;14.90;46.70
3268;DHT22;1646;52.450;13.326;2023-04-06T13:00:15;15.10;41.70
3268;DHT22;1646;52.450;13.326;2023-04-06T13:05:16;15.10;42.10
3268;DHT22;1646;52.450;13.326;2023-04-06T13:10:16;14.50;42.70
3268;DHT22;1646;52.450;13.326;2023-04-06T13:15:14;14.30;43.00
3268;DHT22;1646;52.450;13.326;2023-04-06T13:20:13;14.20;43.00
3268;DHT22;1646;52.450;13.326;2023-04-06T13:25:13;14.70;43.10
3268;DHT22;1646;52.450;13.326;2023-04-06T13:30:12;14.90;45.30
3268;DHT22;1646;52.450;13.326;2023-04-06T13:35:13;15.00;43.40
3268;DHT22;1646;52.450;13.326;2023-04-06T13:40:13;14.90;43.10
3268;DHT22;1646;52.450;13.326;2023-04-06T13:45:12;14.50;44.40
3268;DHT22;1646;52.450;13.326;2023-04-06T13:50:10;14.40;43.40
3268;DHT22;1646;52.450;13.326;2023-04-06T13:55:09;13.90;43.90
3268;DHT22;1646;52.450;13.326;2023-04-06T14:00:09;14.10;43.90
3268;DHT22;1646;52.450;13.326;2023-04-06T14:05:10;14.30;43.70
3268;DHT22;1646;52.450;13.326;2023-04-06T14:10:09;14.70;44.90
3268;DHT22;1646;52.450;13.326;2023-04-06T14:15:12;15.30;46.10
3268;DHT22;1646;52.450;13.326;2023-04-06T14:20:11;15.70;45.50
3268;DHT22;1646;52.450;13.326;2023-04-06T14:25:11;15.20;43.50
3268;DHT22;1646;52.450;13.326;2023-04-06T14:30:12;15.40;46.00
3268;DHT22;1646;52.450;13.326;2023-04-06T14:35:10;15.30;43.70
3268;DHT22;1646;52.450;13.326;2023-04-06T14:40:09;15.40;44.70
3268;DHT22;1646;52.450;13.326;2023-04-06T14:45:08;15.70;44.40
3268;DHT22;1646;52.450;13.326;2023-04-06T14:50:09;16.00;44.10
3268;DHT22;1646;52.450;13.326;2023-04-06T14:55:08;15.90;44.70
3268;DHT22;1646;52.450;13.326;2023-04-06T15:00:07;16.30;47.00
3268;DHT22;1646;52.450;13.326;2023-04-06T15:05:08;16.40;44.40
3268;DHT22;1646;52.450;13.326;2023-04-06T15:10:09;15.80;43.50
3268;DHT22;1646;52.450;13.326;2023-04-06T15:15:08;15.40;43.20
3268;DHT22;1646;52.450;13.326;2023-04-06T15:20:09;15.20;44.50
3268;DHT22;1646;52.450;13.326;2023-04-06T15:25:08;15.30;45.80
3268;DHT22;1646;52.450;13.326;2023-04-06T15:30:07;15.80;44.30
3268;DHT22;1646;52.450;13.326;2023-04-06T15:35:13;16.00;43.60
3268;DHT22;1646;52.450;13.326;2023-04-06T15:40:12;16.00;43.60
3268;DHT22;1646;52.450;13.326;2023-04-06T15:45:12;15.90;42.70
3268;DHT22;1646;52.450;13.326;2023-04-06T15:50:13;15.60;44.50
3268;DHT22;1646;52.450;13.326;2023-04-06T15:55:11;15.90;45.00
3268;DHT22;1646;52.450;13.326;2023-04-06T16:00:10;15.90;42.90
3268;DHT22;1646;52.450;13.326;2023-04-06T16:05:09;15.30;43.20
3268;DHT22;1646;52.450;13.326;2023-04-06T16:10:09;15.60;44.30
3268;DHT22;1646;52.450;13.326;2023-04-06T16:15:08;15.90;45.20
3268;DHT22;1646;52.450;13.326;2023-04-06T16:20:07;15.90;44.10
3268;DHT22;1646;52.450;13.326;2023-04-06T16:25:07;15.60;44.10
3268;DHT22;1646;52.450;13.326;2023-04-06T16:30:08;15.70;44.60
3268;DHT22;1646;52.450;13.326;2023-04-06T16:35:07;15.60;44.30
3268;DHT22;1646;52.450;13.326;2023-04-06T16:40:07;15.70;44.80
3268;DHT22;1646;52.450;13.326;2023-04-06T16:45:08;16.10;45.70
3268;DHT22;1646;52.450;13.326;2023-04-06T16:50:07;17.30;44.80
3268;DHT22;1646;52.450;13.326;2023-04-06T16:55:07;18.30;43.60
3268;DHT22;1646;52.450;13.326;2023-04-06T17:00:08;18.70;42.70
3268;DHT22;1646;52.450;13.326;2023-04-06T17:05:07;18.50;42.70
3268;DHT22;1646;52.450;13.326;2023-04-06T17:10:06;18.80;42.80
3268;DHT22;1646;52.450;13.326;2023-04-06T17:15:07;18.60;42.70
3268;DHT22;1646;52.450;13.326;2023-04-06T17:20:07;17.10;41.90
3268;DHT22;1646;52.450;13.326;2023-04-06T17:25:07;15.10;43.00
3268;DHT22;1646;52.450;13.326;2023-04-06T17:30:08;13.80;44.60
3268;DHT22;1646;52.450;13.326;2023-04-06T17:35:07;12.90;45.60
3268;DHT22;1646;52.450;13.326;2023-04-06T17:40:06;12.20;46.30
3268;DHT22;1646;52.450;13.326;2023-04-06T17:45:08;11.80;47.60
3268;DHT22;1646;52.450;13.326;2023-04-06T17:50:07;11.60;48.00
3268;DHT22;1646;52.450;13.326;2023-04-06T17:55:05;11.50;47.80
3268;DHT22;1646;52.450;13.326;2023-04-06T18:00:05;11.40;48.20
3268;DHT22;1646;52.450;13.326;2023-04-06T18:05:06;11.30;48.80
3268;DHT22;1646;52.450;13.326;2023-04-06T18:10:05;11.20;48.90
3268;DHT22;1646;52.450;13.326;2023-04-06T18:15:05;11.00;49.10
3268;DHT22;1646;52.450;13.326;2023-04-06T18:20:06;11.00;49.20
3268;DHT22;1646;52.450;13.326;2023-04-06T18:25:05;11.00;49.20
3268;DHT22;1646;52.450;13.326;2023-04-06T18:30:04;11.00;49.50
3268;DHT22;1646;52.450;13.326;2023-04-06T18:35:05;11.00;49.70
3268;DHT22;1646;52.450;13.326;2023-04-06T18:40:06;10.90;49.80
3268;DHT22;1646;52.450;13.326;2023-04-06T18:45:05;10.70;50.00
3268;DHT22;1646;52.450;13.326;2023-04-06T18:50:06;10.70;49.90
3268;DHT22;1646;52.450;13.326;2023-04-06T18:55:06;10.60;49.60
3268;DHT22;1646;52.450;13.326;2023-04-06T19:00:06;10.60;50.60
3268;DHT22;1646;52.450;13.326;2023-04-06T19:05:06;10.40;50.70
3268;DHT22;1646;52.450;13.326;2023-04-06T19:10:06;10.40;50.40
3268;DHT22;1646;52.450;13.326;2023-04-06T19:15:05;10.30;50.80
3268;DHT22;1646;52.450;13.326;2023-04-06T19:20:04;10.20;51.90
3268;DHT22;1646;52.450;13.326;2023-04-06T19:25:05;10.20;51.20
3268;DHT22;1646;52.450;13.326;2023-04-06T19:30:04;10.20;52.00
3268;DHT22;1646;52.450;13.326;2023-04-06T19:35:03;10.10;51.50
3268;DHT22;1646;52.450;13.326;2023-04-06T19:40:04;10.00;52.10
3268;DHT22;1646;52.450;13.326;2023-04-06T19:45:07;10.00;52.50
3268;DHT22;1646;52.450;13.326;2023-04-06T19:50:06;9.90;53.80
3268;DHT22;1646;52.450;13.326;2023-04-06T19:55:08;9.90;53.50
3268;DHT22;1646;52.450;13.326;2023-04-06T20:00:07;9.80;53.30
3268;DHT22;1646;52.450;13.326;2023-04-06T20:05:06;9.80;54.00
3268;DHT22;1646;52.450;13.326;2023-04-06T20:10:07;9.70;53.90
3268;DHT22;1646;52.450;13.326;2023-04-06T20:15:05;9.60;54.40
3268;DHT22;1646;52.450;13.326;2023-04-06T20:20:08;9.50;54.10
3268;DHT22;1646;52.450;13.326;2023-04-06T20:25:09;9.40;54.80
3268;DHT22;1646;52.450;13.326;2023-04-06T20:30:09;9.40;54.50
3268;DHT22;1646;52.450;13.326;2023-04-06T20:35:07;9.30;55.60
3268;DHT22;1646;52.450;13.326;2023-04-06T20:40:08;9.20;55.30
3268;DHT22;1646;52.450;13.326;2023-04-06T20:45:08;9.20;56.10
3268;DHT22;1646;52.450;13.326;2023-04-06T20:50:08;9.20;55.40
3268;DHT22;1646;52.450;13.326;2023-04-06T20:55:08;9.10;55.20
3268;DHT22;1646;52.450;13.326;2023-04-06T21:00:07;9.10;55.00
3268;DHT22;1646;52.450;13.326;2023-04-06T21:05:08;9.00;54.80
3268;DHT22;1646;52.450;13.326;2023-04-06T21:10:08;9.00;54.70
3268;DHT22;1646;52.450;13.326;2023-04-06T21:15:07;8.90;55.30
3268;DHT22;1646;52.450;13.326;2023-04-06T21:20:07;8.80;55.00
3268;DHT22;1646;52.450;13.326;2023-04-06T21:25:08;8.80;55.50
3268;DHT22;1646;52.450;13.326;2023-04-06T21:30:09;8.70;55.90
3268;DHT22;1646;52.450;13.326;2023-04-06T21:35:08;8.60;55.40
3268;DHT22;1646;52.450;13.326;2023-04-06T21:40:09;8.60;55.20
3268;DHT22;1646;52.450;13.326;2023-04-06T21:45:08;8.50;55.50
3268;DHT22;1646;52.450;13.326;2023-04-06T21:50:07;8.50;55.90
3268;DHT22;1646;52.450;13.326;2023-04-06T21:55:06;8.50;55.80
3268;DHT22;1646;52.450;13.326;2023-04-06T22:00:07;8.40;56.00
3268;DHT22;1646;52.450;13.326;2023-04-06T22:05:12;8.40;57.10
3268;DHT22;1646;52.450;13.326;2023-04-06T22:10:10;8.30;56.70
3268;DHT22;1646;52.450;13.326;2023-04-06T22:15:12;8.20;56.60
3268;DHT22;1646;52.450;13.326;2023-04-06T22:20:10;8.20;56.60
3268;DHT22;1646;52.450;13.326;2023-04-06T22:25:09;8.10;56.70
3268;DHT22;1646;52.450;13.326;2023-04-06T22:30:08;8.00;56.90
3268;DHT22;1646;52.450;13.326;2023-04-06T22:35:08;8.00;57.80
3268;DHT22;1646;52.450;13.326;2023-04-06T22:40:07;7.90;57.40
3268;DHT22;1646;52.450;13.326;2023-04-06T22:45:06;7.90;57.10
3268;DHT22;1646;52.450;13.326;2023-04-06T22:50:08;7.80;57.50
3268;DHT22;1646;52.450;13.326;2023-04-06T22:55:07;7.80;57.70
3268;DHT22;1646;52.450;13.326;2023-04-06T23:00:06;7.80;57.50
3268;DHT22;1646;52.450;13.326;2023-04-06T23:05:05;7.70;57.30
3268;DHT22;1646;52.450;13.326;2023-04-06T23:10:06;7.70;57.50
3268;DHT22;1646;52.450;13.326;2023-04-06T23:15:05;7.60;57.50
3268;DHT22;1646;52.450;13.326;2023-04-06T23:20:05;7.60;57.50
3268;DHT22;1646;52.450;13.326;2023-04-06T23:25:06;7.50;57.70
3268;DHT22;1646;52.450;13.326;2023-04-06T23:30:05;7.50;58.70
3268;DHT22;1646;52.450;13.326;2023-04-06T23:35:05;7.50;58.10
3268;DHT22;1646;52.450;13.326;2023-04-06T23:40:05;7.50;59.50
3268;DHT22;1646;52.450;13.326;2023-04-06T23:45:05;7.60;60.10
3268;DHT22;1646;52.450;13.326;2023-04-06T23:50:04;7.60;60.90
3268;DHT22;1646;52.450;13.326;2023-04-06T23:55:02;7.60;61.10
